John Quigg — WDB9828 — position and weather

sailwx.info

Track history (hours):
 
Tides and Currents Weather Stations Pressure Air Temp Water Temp Dewpoint Dewpoint Depression Visibility Wind Speed Wind Dir Waves Ship Positions

John Quigg

Owner: Harley Marine Services, Inc, Seattle, WA. More information available from US FCC via Universal Licensing System and Coast Guard Vessel Documentation Center.

Last reported at 2017-Oct-19 10:16 UTC. Time now 2017-Oct-19 12:30 UTC.
Position N 33°44' W 118°16'.

Length 27 m.

MMSI: 365934954.

Date/timePositionNaut miles runAvg speedWind from/ knotsBaromVisibWave heightAir tempDewpointWater temp
2017-Oct-19 10:16N 33°44' W 118°16'0 0.0
2017-Oct-19 09:50N 33°44' W 118°16'0 0.0
2017-Oct-19 09:30N 33°44' W 118°16'0 0.0
2017-Oct-19 09:00N 33°44' W 118°16'0 0.0
2017-Oct-19 08:22N 33°44' W 118°16'0 0.0
2017-Oct-19 08:00N 33°44' W 118°16'0 0.0
2017-Oct-19 07:21N 33°44' W 118°16'0 0.0
2017-Oct-19 06:52N 33°44' W 118°16'0 0.0
2017-Oct-19 06:27N 33°44' W 118°16'0 0.0
2017-Oct-19 06:00N 33°44' W 118°16'0 0.0
2017-Oct-19 05:29N 33°44' W 118°16'0 0.0
2017-Oct-19 04:29N 33°44' W 118°16'2 3.7
2017-Oct-19 03:53N 33°43' W 118°13'2 5.6
2017-Oct-19 03:29N 33°44' W 118°10'1 2.4
2017-Oct-19 03:00N 33°44' W 118°12'1 1.4
2017-Oct-19 02:30N 33°44' W 118°13'2 4.5
2017-Oct-19 02:00N 33°44' W 118°10'3 5.2
2017-Oct-19 01:30N 33°44' W 118°13'1 1.6
2017-Oct-19 01:00N 33°45' W 118°12'0 0.1
2017-Oct-18 23:42N 33°45' W 118°12'1 5.1
2017-Oct-18 23:28N 33°44' W 118°13'0 0.7
2017-Oct-18 23:00N 33°43' W 118°13'0 0.0
2017-Oct-18 22:30N 33°44' W 118°13'2 3.6
2017-Oct-18 21:59N 33°45' W 118°14'1 1.6
2017-Oct-18 21:30N 33°45' W 118°13'2 3.8
2017-Oct-18 21:00N 33°44' W 118°11'3 5.2
2017-Oct-18 20:29N 33°43' W 118°15'1 2.7
2017-Oct-18 20:00N 33°44' W 118°16'0 0.0
2017-Oct-18 19:28N 33°44' W 118°16'0 0.0
2017-Oct-18 18:59N 33°44' W 118°16'0 0.0
2017-Oct-18 18:30N 33°44' W 118°16'0 0.0
2017-Oct-18 18:00N 33°44' W 118°16'0 0.0
2017-Oct-18 17:30N 33°44' W 118°16'0 0.0
2017-Oct-18 16:56N 33°44' W 118°16'0 0.0
2017-Oct-18 16:30N 33°44' W 118°16'0 0.0
2017-Oct-18 15:57N 33°44' W 118°16'0 0.0
2017-Oct-18 15:28N 33°44' W 118°16'0 0.0
2017-Oct-18 14:58N 33°44' W 118°16'5 4.5
2017-Oct-18 13:57N 33°44' W 118°10'5 5.9
2017-Oct-18 13:11N 33°44' W 118°16'0 1.0
2017-Oct-18 13:00N 33°44' W 118°16'0 0.0
2017-Oct-18 12:29N 33°44' W 118°16'0 0.0
2017-Oct-18 12:00N 33°44' W 118°16'0 0.0
2017-Oct-18 11:30N 33°44' W 118°16'0 0.0
2017-Oct-18 11:00N 33°44' W 118°16'0 0.0
2017-Oct-18 10:30N 33°44' W 118°16'0 0.0
2017-Oct-18 10:00N 33°44' W 118°16'0 0.0
2017-Oct-18 09:30N 33°44' W 118°16'0 0.0
2017-Oct-18 09:00N 33°44' W 118°16'0 0.0
2017-Oct-18 08:29N 33°44' W 118°16'0 0.0
2017-Oct-18 08:00N 33°44' W 118°16'0 0.0
2017-Oct-18 07:30N 33°44' W 118°16'0 0.0
2017-Oct-18 07:00N 33°44' W 118°16'0 0.0
2017-Oct-18 06:30N 33°44' W 118°16'0 0.0
2017-Oct-18 06:00N 33°44' W 118°16'0 0.0
2017-Oct-18 05:22N 33°44' W 118°16'0 0.0
2017-Oct-18 04:58N 33°44' W 118°16'0 0.0
2017-Oct-18 04:20N 33°44' W 118°16'0 0.0
2017-Oct-18 03:57N 33°44' W 118°16'0 0.0
2017-Oct-18 03:29N 33°44' W 118°16'0 0.0
2017-Oct-18 02:58N 33°44' W 118°16'0 0.0
2017-Oct-18 02:30N 33°44' W 118°16'0 0.0
2017-Oct-18 01:59N 33°44' W 118°16'0 0.0
2017-Oct-18 01:28N 33°44' W 118°16'0 0.0
2017-Oct-18 00:56N 33°44' W 118°16'0 0.0
2017-Oct-18 00:25N 33°44' W 118°16'0 0.0
2017-Oct-18 00:00N 33°44' W 118°16'0 0.0
2017-Oct-17 23:30N 33°44' W 118°16'0 0.0
2017-Oct-17 22:56N 33°44' W 118°16'0 0.0
2017-Oct-17 22:28N 33°44' W 118°16'0 0.0
2017-Oct-17 21:59N 33°44' W 118°16'0 0.0
2017-Oct-17 21:29N 33°44' W 118°16'0 0.0
2017-Oct-17 21:00N 33°44' W 118°16'0 0.0
2017-Oct-17 20:30N 33°44' W 118°16'0 0.0
2017-Oct-17 19:58N 33°44' W 118°16'0 0.0
2017-Oct-17 19:30N 33°44' W 118°16'0 0.0
2017-Oct-17 19:00N 33°44' W 118°16'0 0.0
2017-Oct-17 18:30N 33°44' W 118°16'0 0.0
2017-Oct-17 17:59N 33°44' W 118°16'0 0.0
2017-Oct-17 17:30N 33°44' W 118°16'0 0.0
2017-Oct-17 17:00N 33°44' W 118°16'0 0.0
2017-Oct-17 16:30N 33°44' W 118°16'0 0.1
2017-Oct-17 15:59N 33°44' W 118°16'0 0.5
2017-Oct-17 15:20N 33°44' W 118°15'1 2.9
2017-Oct-17 14:54N 33°45' W 118°16'1 3.3
2017-Oct-17 14:27N 33°43' W 118°16'2 0.6
2017-Oct-17 11:41N 33°43' W 118°14'2 6.1
2017-Oct-17 11:26N 33°44' W 118°16'0 0.0
2017-Oct-17 11:00N 33°44' W 118°16'0 0.0
2017-Oct-17 10:23N 33°44' W 118°16'0 0.0
2017-Oct-17 09:58N 33°44' W 118°16'0 0.0
2017-Oct-17 09:28N 33°44' W 118°16'0 0.0
2017-Oct-17 08:47N 33°44' W 118°16'0 0.0
2017-Oct-17 08:25N 33°44' W 118°16'0 0.0
2017-Oct-17 07:56N 33°44' W 118°16'0 0.0
2017-Oct-17 07:29N 33°44' W 118°16'0 0.0
2017-Oct-17 06:51N 33°44' W 118°16'0 0.0
2017-Oct-17 06:21N 33°44' W 118°16'0 0.0
2017-Oct-17 05:51N 33°44' W 118°16'0 0.0
2017-Oct-17 05:29N 33°44' W 118°16'0 0.0
2017-Oct-17 04:58N 33°44' W 118°16'0 0.0
2017-Oct-17 04:29N 33°44' W 118°16'0 0.0
2017-Oct-17 03:55N 33°44' W 118°16'0 0.0
2017-Oct-17 03:28N 33°44' W 118°16'0 0.0
2017-Oct-17 03:00N 33°44' W 118°16'0 0.0
2017-Oct-17 02:30N 33°44' W 118°16'0 0.0
2017-Oct-17 01:59N 33°44' W 118°16'0 0.0
2017-Oct-17 01:30N 33°44' W 118°16'0 0.0
2017-Oct-17 01:00N 33°44' W 118°16'0 0.0
2017-Oct-17 00:30N 33°44' W 118°16'0 0.0
2017-Oct-17 00:00N 33°44' W 118°16'0 0.0
2017-Oct-16 23:30N 33°44' W 118°16'0 0.0
2017-Oct-16 23:00N 33°44' W 118°16'0 0.0
2017-Oct-16 22:29N 33°44' W 118°16'0 0.0
2017-Oct-16 21:59N 33°44' W 118°16'0 0.0
2017-Oct-16 21:30N 33°44' W 118°16'0 0.0
2017-Oct-16 21:00N 33°44' W 118°16'0 0.0
2017-Oct-16 20:29N 33°44' W 118°16'0 0.0
2017-Oct-16 20:00N 33°44' W 118°16'0 0.0
2017-Oct-16 19:30N 33°44' W 118°16'0 0.0
2017-Oct-16 19:00N 33°44' W 118°16'0 0.0
2017-Oct-16 18:30N 33°44' W 118°16'0 0.0
2017-Oct-16 18:00N 33°44' W 118°16'0 0.0
2017-Oct-16 17:30N 33°44' W 118°16'0 0.0
2017-Oct-16 16:58N 33°44' W 118°16'0 0.0
2017-Oct-16 16:28N 33°44' W 118°16'0 0.0
2017-Oct-16 15:59N 33°44' W 118°16'0 0.0
2017-Oct-16 15:30N 33°44' W 118°16'0 0.0
2017-Oct-16 14:44N 33°44' W 118°16'1 1.0
2017-Oct-16 13:54N 33°44' W 118°17'2 3.2
2017-Oct-16 13:19N 33°46' W 118°16'2 5.1
2017-Oct-16 12:58N 33°44' W 118°17'1 2.5
2017-Oct-16 12:29N 33°45' W 118°17'1 0.7
2017-Oct-16 11:45N 33°45' W 118°16'1 1.1
2017-Oct-16 10:37N 33°44' W 118°16'0 0.0
2017-Oct-16 10:20N 33°44' W 118°16'0 0.0
2017-Oct-16 09:53N 33°44' W 118°16'0 0.0
2017-Oct-16 09:18N 33°44' W 118°16'0 0.0
2017-Oct-16 08:57N 33°44' W 118°16'0 0.0
2017-Oct-16 08:10N 33°44' W 118°16'0 0.0
2017-Oct-16 07:50N 33°44' W 118°16'0 0.0
2017-Oct-16 07:29N 33°44' W 118°16'0 0.0
2017-Oct-16 06:58N 33°44' W 118°16'0 0.0
2017-Oct-16 06:30N 33°44' W 118°16'0 0.0
2017-Oct-16 06:00N 33°44' W 118°16'0 0.0
2017-Oct-16 05:30N 33°44' W 118°16'0 0.0
2017-Oct-16 05:00N 33°44' W 118°16'0 0.0
2017-Oct-16 04:30N 33°44' W 118°16'0 0.0
2017-Oct-16 04:00N 33°44' W 118°16'0 0.0
2017-Oct-16 03:30N 33°44' W 118°16'0 0.0
2017-Oct-16 03:00N 33°44' W 118°16'0 0.0
2017-Oct-16 02:29N 33°44' W 118°16'0 0.0
2017-Oct-16 02:00N 33°44' W 118°16'0 0.0
2017-Oct-16 01:30N 33°44' W 118°16'0 0.0
2017-Oct-16 00:56N 33°44' W 118°16'0 0.0
2017-Oct-16 00:30N 33°44' W 118°16'0 0.0
2017-Oct-16 00:00N 33°44' W 118°16'0 0.0
2017-Oct-15 23:30N 33°44' W 118°16'3 5.3
2017-Oct-15 23:00N 33°44' W 118°13'1 1.1
2017-Oct-15 22:30N 33°44' W 118°12'1 1.4
2017-Oct-15 21:59N 33°44' W 118°12'1 2.6
2017-Oct-15 21:30N 33°43' W 118°11'3 5.3
2017-Oct-15 21:00N 33°42' W 118°14'2 4.6
2017-Oct-15 20:30N 33°44' W 118°16'0 0.0
2017-Oct-15 19:59N 33°44' W 118°16'0 0.0
2017-Oct-15 19:30N 33°44' W 118°16'0 0.0
2017-Oct-15 19:00N 33°44' W 118°16'0 0.0
2017-Oct-15 18:30N 33°44' W 118°16'0 0.0
2017-Oct-15 17:59N 33°44' W 118°16'0 0.0
2017-Oct-15 17:30N 33°44' W 118°16'0 0.0
2017-Oct-15 17:00N 33°44' W 118°16'0 0.0
2017-Oct-15 16:30N 33°44' W 118°16'0 0.0
2017-Oct-15 16:00N 33°44' W 118°16'0 0.0
2017-Oct-15 15:27N 33°44' W 118°16'0 0.0
2017-Oct-15 15:00N 33°44' W 118°16'1 1.0
2017-Oct-15 13:54N 33°43' W 118°15'2 4.1
2017-Oct-15 13:27N 33°44' W 118°13'2 4.7
2017-Oct-15 13:00N 33°44' W 118°16'1 1.3
2017-Oct-15 12:30N 33°43' W 118°16'1 1.5
2017-Oct-15 12:00N 33°44' W 118°15'0 0.5
2017-Oct-15 11:26N 33°44' W 118°16'0 0.0
2017-Oct-15 11:00N 33°44' W 118°16'0 0.0
2017-Oct-15 10:12N 33°44' W 118°16'0 0.0
2017-Oct-15 09:59N 33°44' W 118°16'0 0.0
2017-Oct-15 09:29N 33°44' W 118°16'0 0.0
2017-Oct-15 09:00N 33°44' W 118°16'0 0.0
2017-Oct-15 08:29N 33°44' W 118°16'0 0.0
2017-Oct-15 08:00N 33°44' W 118°16'0 0.0
2017-Oct-15 07:29N 33°44' W 118°16'0 0.0
2017-Oct-15 07:00N 33°44' W 118°16'0 0.0
2017-Oct-15 06:30N 33°44' W 118°16'0 0.0
2017-Oct-15 06:00N 33°44' W 118°16'0 0.0
2017-Oct-15 05:30N 33°44' W 118°16'0 0.0
2017-Oct-15 04:58N 33°44' W 118°16'0 0.0
2017-Oct-15 04:30N 33°44' W 118°16'0 0.0
2017-Oct-15 04:00N 33°44' W 118°16'0 0.0
2017-Oct-15 03:30N 33°44' W 118°16'0 0.0
2017-Oct-15 03:00N 33°44' W 118°16'0 0.0
2017-Oct-15 02:30N 33°44' W 118°16'2 3.6
2017-Oct-15 02:00N 33°43' W 118°14'2 3.7
2017-Oct-15 01:30N 33°45' W 118°13'0 0.2
2017-Oct-15 01:00N 33°45' W 118°13'0 0.1
2017-Oct-15 00:30N 33°45' W 118°13'3 5.8
2017-Oct-15 00:00N 33°43' W 118°16'0 0.7
2017-Oct-14 23:30N 33°44' W 118°16'0 0.0
2017-Oct-14 23:00N 33°44' W 118°16'0 0.0
2017-Oct-14 22:30N 33°44' W 118°16'0 0.0
2017-Oct-14 21:53N 33°44' W 118°16'0 0.0
2017-Oct-14 21:29N 33°44' W 118°16'0 0.0
2017-Oct-14 21:00N 33°44' W 118°16'0 0.0
2017-Oct-14 20:30N 33°44' W 118°16'0 0.0
2017-Oct-14 20:00N 33°44' W 118°16'0 0.0
2017-Oct-14 19:30N 33°44' W 118°16'0 0.0
2017-Oct-14 19:00N 33°44' W 118°16'0 0.0
2017-Oct-14 18:30N 33°44' W 118°16'0 0.0
2017-Oct-14 17:59N 33°44' W 118°16'0 0.0
2017-Oct-14 17:30N 33°44' W 118°16'0 0.0
2017-Oct-14 17:00N 33°44' W 118°16'0 0.0
2017-Oct-14 16:30N 33°44' W 118°16'0 0.0
2017-Oct-14 16:00N 33°44' W 118°16'0 0.0
2017-Oct-14 15:30N 33°44' W 118°16'0 0.0
2017-Oct-14 14:55N 33°44' W 118°16'1 2.7
2017-Oct-14 14:29N 33°43' W 118°15'3 5.6
2017-Oct-14 13:53N 33°45' W 118°12'2 2.0
2017-Oct-14 13:08N 33°43' W 118°11'0 0.4
2017-Oct-14 12:39N 33°44' W 118°11'0 0.5
2017-Oct-14 12:30N 33°44' W 118°11'2 4.2
2017-Oct-14 12:00N 33°45' W 118°13'1 2.7
2017-Oct-14 11:30N 33°46' W 118°13'0 0.0
2017-Oct-14 10:59N 33°46' W 118°13'4 6.8
2017-Oct-14 10:27N 33°43' W 118°15'1 2.1
2017-Oct-14 09:59N 33°44' W 118°16'0 0.0
2017-Oct-14 09:29N 33°44' W 118°16'0 0.0
2017-Oct-14 09:00N 33°44' W 118°16'0 0.0
2017-Oct-14 08:30N 33°44' W 118°16'0 0.0
2017-Oct-14 07:50N 33°44' W 118°16'0 0.0
2017-Oct-14 07:30N 33°44' W 118°16'0 0.0
2017-Oct-14 07:00N 33°44' W 118°16'0 0.0
2017-Oct-14 06:30N 33°44' W 118°16'0 0.0
2017-Oct-14 06:00N 33°44' W 118°16'0 0.0
2017-Oct-14 05:26N 33°44' W 118°16'0 0.0
2017-Oct-14 05:00N 33°44' W 118°16'0 0.0
2017-Oct-14 04:30N 33°44' W 118°16'0 0.0
2017-Oct-14 04:00N 33°44' W 118°16'0 0.0
2017-Oct-14 03:30N 33°44' W 118°16'0 0.0
2017-Oct-14 03:00N 33°44' W 118°16'0 0.0
2017-Oct-14 02:31N 33°44' W 118°16'0 0.0
2017-Oct-14 02:00N 33°44' W 118°16'0 0.0
2017-Oct-14 01:30N 33°44' W 118°16'0 0.0
2017-Oct-14 01:00N 33°44' W 118°16'0 0.0
2017-Oct-14 00:30N 33°44' W 118°16'1 1.3
2017-Oct-14 00:00N 33°43' W 118°16'3 5.8
2017-Oct-13 23:30N 33°44' W 118°12'0 0.7
2017-Oct-13 23:00N 33°44' W 118°12'4 7.0
2017-Oct-13 22:28N 33°44' W 118°08'2 2.6
2017-Oct-13 21:47N 33°44' W 118°06'0 1.5
2017-Oct-13 21:28N 33°44' W 118°06'4 8.4
2017-Oct-13 21:00N 33°44' W 118°11'4 8.5
2017-Oct-13 20:30N 33°44' W 118°16'0 0.0
2017-Oct-13 20:00N 33°44' W 118°16'0 0.0
2017-Oct-13 19:28N 33°44' W 118°16'0 0.0
2017-Oct-13 18:59N 33°44' W 118°16'0 0.0
2017-Oct-13 18:29N 33°44' W 118°16'0 0.0
2017-Oct-13 17:59N 33°44' W 118°16'0 0.0
2017-Oct-13 17:29N 33°44' W 118°16'0 0.0
2017-Oct-13 17:00N 33°44' W 118°16'0 0.0
2017-Oct-13 16:29N 33°44' W 118°16'0 0.0
2017-Oct-13 16:00N 33°44' W 118°16'0 0.0
2017-Oct-13 15:29N 33°44' W 118°16'0 0.0
2017-Oct-13 14:53N 33°44' W 118°16'2 6.1
2017-Oct-13 14:30N 33°43' W 118°13'2 2.8
2017-Oct-13 13:44N 33°42' W 118°11'1 5.1
2017-Oct-13 13:29N 33°41' W 118°11'4 6.8
2017-Oct-13 12:55N 33°43' W 118°15'3 5.7
2017-Oct-13 12:22N 33°46' W 118°17'0 0.2
2017-Oct-13 11:59N 33°46' W 118°17'2 4.1
2017-Oct-13 11:28N 33°44' W 118°16'2 3.2
2017-Oct-13 11:00N 33°43' W 118°15'1 2.6
2017-Oct-13 10:31N 33°44' W 118°16'0 0.0
2017-Oct-13 09:55N 33°44' W 118°16'0 0.0
2017-Oct-13 09:30N 33°44' W 118°16'0 0.0
2017-Oct-13 09:00N 33°44' W 118°16'0 0.0
2017-Oct-13 08:30N 33°44' W 118°16'0 0.0
2017-Oct-13 08:00N 33°44' W 118°16'0 0.0
2017-Oct-13 07:30N 33°44' W 118°16'0 0.0
2017-Oct-13 07:00N 33°44' W 118°16'0 0.0
2017-Oct-13 06:29N 33°44' W 118°16'0 0.0
2017-Oct-13 06:00N 33°44' W 118°16'0 0.0
2017-Oct-13 05:30N 33°44' W 118°16'0 0.0
2017-Oct-13 05:00N 33°44' W 118°16'0 0.0
2017-Oct-13 04:26N 33°44' W 118°16'0 0.0
2017-Oct-13 04:00N 33°44' W 118°16'0 0.0
2017-Oct-13 03:30N 33°44' W 118°16'0 0.0
2017-Oct-13 03:00N 33°44' W 118°16'0 0.0
2017-Oct-13 02:28N 33°44' W 118°16'0 0.0
2017-Oct-13 02:00N 33°44' W 118°16'0 0.0
2017-Oct-13 01:30N 33°44' W 118°16'0 0.0
2017-Oct-13 00:56N 33°44' W 118°16'0 0.9
2017-Oct-13 00:27N 33°44' W 118°15'0 0.0
2017-Oct-13 00:00N 33°44' W 118°15'0 0.8
2017-Oct-12 23:27N 33°44' W 118°16'0 0.7
2017-Oct-12 23:00N 33°44' W 118°15'2 4.4
2017-Oct-12 22:30N 33°45' W 118°13'1 1.2
2017-Oct-12 21:59N 33°46' W 118°13'2 4.3
2017-Oct-12 21:30N 33°44' W 118°12'0 0.6
2017-Oct-12 21:00N 33°44' W 118°12'3 4.8
2017-Oct-12 20:28N 33°43' W 118°15'1 2.8
2017-Oct-12 20:00N 33°44' W 118°16'0 0.0
2017-Oct-12 19:30N 33°44' W 118°16'0 0.0
2017-Oct-12 19:00N 33°44' W 118°16'0 0.0
2017-Oct-12 18:30N 33°44' W 118°16'0 0.0
2017-Oct-12 18:00N 33°44' W 118°16'0 0.0
2017-Oct-12 17:30N 33°44' W 118°16'0 0.0
2017-Oct-12 17:00N 33°44' W 118°16'0 0.0
2017-Oct-12 16:26N 33°44' W 118°16'0 0.0
2017-Oct-12 15:46N 33°44' W 118°16'0 0.0
2017-Oct-12 15:27N 33°44' W 118°16'0 0.0
2017-Oct-12 14:09N 33°44' W 118°16'0 0.0
2017-Oct-12 13:58N 33°44' W 118°16'0 0.0
2017-Oct-12 13:28N 33°44' W 118°16'1 1.1
2017-Oct-12 12:56N 33°43' W 118°16'1 0.6
2017-Oct-12 11:54N 33°44' W 118°15'1 1.4
2017-Oct-12 11:24N 33°43' W 118°16'1 1.6
2017-Oct-12 10:53N 33°44' W 118°15'0 1.0
2017-Oct-12 10:29N 33°44' W 118°16'0 0.0
2017-Oct-12 09:56N 33°44' W 118°16'0 0.0
2017-Oct-12 09:28N 33°44' W 118°16'0 0.0
2017-Oct-12 08:58N 33°44' W 118°16'0 0.0
2017-Oct-12 08:22N 33°44' W 118°16'0 0.0
2017-Oct-12 08:00N 33°44' W 118°16'0 0.0
2017-Oct-12 07:23N 33°44' W 118°16'0 0.0
2017-Oct-12 07:00N 33°44' W 118°16'0 0.0
2017-Oct-12 06:23N 33°44' W 118°16'0 0.0
2017-Oct-12 05:58N 33°44' W 118°16'0 0.0
2017-Oct-12 05:26N 33°44' W 118°16'0 0.0
2017-Oct-12 04:59N 33°44' W 118°16'0 0.0
2017-Oct-12 04:30N 33°44' W 118°16'0 0.0
2017-Oct-12 03:58N 33°44' W 118°16'0 0.0
2017-Oct-12 03:30N 33°44' W 118°16'0 0.0
2017-Oct-12 02:58N 33°44' W 118°16'0 0.0
2017-Oct-12 02:29N 33°44' W 118°16'0 0.0
2017-Oct-12 01:49N 33°44' W 118°16'0 1.4
2017-Oct-12 01:28N 33°43' W 118°16'2 3.9
2017-Oct-12 01:00N 33°45' W 118°16'1 0.9
2017-Oct-12 00:25N 33°46' W 118°15'1 2.2
2017-Oct-12 00:00N 33°45' W 118°16'1 2.4
2017-Oct-11 23:30N 33°44' W 118°16'0 0.0
2017-Oct-11 23:00N 33°44' W 118°16'0 0.0
2017-Oct-11 22:30N 33°44' W 118°16'0 0.0
2017-Oct-11 22:00N 33°44' W 118°16'0 0.0
2017-Oct-11 21:26N 33°44' W 118°16'0 0.0
2017-Oct-11 21:00N 33°44' W 118°16'0 0.0
2017-Oct-11 20:29N 33°44' W 118°16'0 0.0
2017-Oct-11 19:58N 33°44' W 118°16'0 0.0
2017-Oct-11 19:30N 33°44' W 118°16'0 0.0
2017-Oct-11 18:59N 33°44' W 118°16'0 0.0
2017-Oct-11 18:29N 33°44' W 118°16'0 0.0
2017-Oct-11 17:59N 33°44' W 118°16'0 0.0
2017-Oct-11 17:30N 33°44' W 118°16'0 0.0
2017-Oct-11 17:00N 33°44' W 118°16'3 0.2
2017-Oct-11 00:00N 33°46' W 118°13'0 0.1
2017-Oct-10 23:30N 33°46' W 118°13'2 3.6
2017-Oct-10 22:54N 33°46' W 118°15'1 2.8
2017-Oct-10 22:30N 33°45' W 118°16'3 5.2
2017-Oct-10 22:00N 33°43' W 118°15'1 2.8
2017-Oct-10 21:29N 33°44' W 118°16'0 0.0
2017-Oct-10 20:59N 33°44' W 118°16'0 0.0
2017-Oct-10 20:30N 33°44' W 118°16'0 0.0
2017-Oct-10 19:59N 33°44' W 118°16'0 0.0
2017-Oct-10 19:30N 33°44' W 118°16'1 1.8
2017-Oct-10 19:00N 33°43' W 118°15'510.1
2017-Oct-10 18:29N 33°44' W 118°09'3 6.7
2017-Oct-10 18:00N 33°44' W 118°06'0 1.0
2017-Oct-10 17:30N 33°44' W 118°06'3 5.2
2017-Oct-10 17:00N 33°44' W 118°09'4 7.1
2017-Oct-10 16:31N 33°45' W 118°13'1 1.1
2017-Oct-10 16:00N 33°45' W 118°13'0 0.2
2017-Oct-10 15:30N 33°45' W 118°13'5 9.9
2017-Oct-10 15:00N 33°44' W 118°08'3 3.2
2017-Oct-10 13:58N 33°44' W 118°11'4 9.1
2017-Oct-10 13:30N 33°44' W 118°17'1 1.8
2017-Oct-10 13:00N 33°45' W 118°17'1 1.3
2017-Oct-10 12:30N 33°45' W 118°17'1 2.1
2017-Oct-10 12:00N 33°44' W 118°16'0 0.1
2017-Oct-10 11:30N 33°44' W 118°16'1 2.8
2017-Oct-10 11:00N 33°43' W 118°15'1 2.6
2017-Oct-10 10:30N 33°44' W 118°16'0 0.0
2017-Oct-10 10:00N 33°44' W 118°16'0 0.0
2017-Oct-10 09:30N 33°44' W 118°16'0 0.0
2017-Oct-10 09:00N 33°44' W 118°16'0 0.0
2017-Oct-10 08:30N 33°44' W 118°16'0 0.0
2017-Oct-10 08:00N 33°44' W 118°16'0 0.0
2017-Oct-10 07:30N 33°44' W 118°16'0 0.0
2017-Oct-10 07:00N 33°44' W 118°16'0 0.0
2017-Oct-10 06:30N 33°44' W 118°16'0 0.0
2017-Oct-10 06:00N 33°44' W 118°16'0 0.0
2017-Oct-10 05:30N 33°44' W 118°16'0 0.0
2017-Oct-10 05:00N 33°44' W 118°16'0 0.0
2017-Oct-10 04:30N 33°44' W 118°16'0 0.0
2017-Oct-10 04:00N 33°44' W 118°16'0 0.0
2017-Oct-10 03:31N 33°44' W 118°16'0 0.0
2017-Oct-10 03:00N 33°44' W 118°16'0 0.0
2017-Oct-10 02:30N 33°44' W 118°16'0 0.0
2017-Oct-10 02:00N 33°44' W 118°16'0 0.0
2017-Oct-10 01:30N 33°44' W 118°16'0 0.0
2017-Oct-10 01:00N 33°44' W 118°16'0 0.0
2017-Oct-10 00:30N 33°44' W 118°16'0 0.0
2017-Oct-10 00:00N 33°44' W 118°16'0 0.0
2017-Oct-09 23:30N 33°44' W 118°16'0 0.0
2017-Oct-09 23:00N 33°44' W 118°16'0 0.0
2017-Oct-09 22:31N 33°44' W 118°16'0 0.0
2017-Oct-09 22:00N 33°44' W 118°16'0 0.0
2017-Oct-09 21:29N 33°44' W 118°16'0 0.0
2017-Oct-09 20:59N 33°44' W 118°16'0 0.0
2017-Oct-09 20:30N 33°44' W 118°16'0 0.0
2017-Oct-09 20:00N 33°44' W 118°16'0 0.0
2017-Oct-09 19:30N 33°44' W 118°16'0 0.0
2017-Oct-09 19:00N 33°44' W 118°16'0 0.0
2017-Oct-09 18:30N 33°44' W 118°16'0 0.0
2017-Oct-09 18:00N 33°44' W 118°16'0 0.0
2017-Oct-09 17:30N 33°44' W 118°16'0 0.0
2017-Oct-09 16:59N 33°44' W 118°16'0 0.0
2017-Oct-09 16:29N 33°44' W 118°16'0 0.0
2017-Oct-09 15:55N 33°44' W 118°16'1 2.4
2017-Oct-09 15:30N 33°45' W 118°17'0 0.6
2017-Oct-09 14:58N 33°45' W 118°17'0 0.4
2017-Oct-09 14:28N 33°45' W 118°17'2 0.7
2017-Oct-09 11:19N 33°43' W 118°15'1 2.7
2017-Oct-09 10:56N 33°44' W 118°16'  
Track history (hours):
 
Tides and Currents Weather Stations Pressure Air Temp Water Temp Dewpoint Dewpoint Depression Visibility Wind Speed Wind Dir Waves Ship Positions

John Quigg

Owner: Harley Marine Services, Inc, Seattle, WA. More information available from US FCC via Universal Licensing System and Coast Guard Vessel Documentation Center.

Last reported at 2017-Oct-19 10:16 UTC. Time now 2017-Oct-19 12:30 UTC.
Position N 33°44' W 118°16'.

Length 27 m.

MMSI: 365934954.

Date/timePositionNaut miles runAvg speedWind from/ knotsBaromVisibWave heightAir tempDewpointWater temp
2017-Oct-19 10:16N 33°44' W 118°16'0 0.0
2017-Oct-19 09:50N 33°44' W 118°16'0 0.0
2017-Oct-19 09:30N 33°44' W 118°16'0 0.0
2017-Oct-19 09:00N 33°44' W 118°16'0 0.0
2017-Oct-19 08:22N 33°44' W 118°16'0 0.0
2017-Oct-19 08:00N 33°44' W 118°16'0 0.0
2017-Oct-19 07:21N 33°44' W 118°16'0 0.0
2017-Oct-19 06:52N 33°44' W 118°16'0 0.0
2017-Oct-19 06:27N 33°44' W 118°16'0 0.0
2017-Oct-19 06:00N 33°44' W 118°16'0 0.0
2017-Oct-19 05:29N 33°44' W 118°16'0 0.0
2017-Oct-19 04:29N 33°44' W 118°16'2 3.7
2017-Oct-19 03:53N 33°43' W 118°13'2 5.6
2017-Oct-19 03:29N 33°44' W 118°10'1 2.4
2017-Oct-19 03:00N 33°44' W 118°12'1 1.4
2017-Oct-19 02:30N 33°44' W 118°13'2 4.5
2017-Oct-19 02:00N 33°44' W 118°10'3 5.2
2017-Oct-19 01:30N 33°44' W 118°13'1 1.6
2017-Oct-19 01:00N 33°45' W 118°12'0 0.1
2017-Oct-18 23:42N 33°45' W 118°12'1 5.1
2017-Oct-18 23:28N 33°44' W 118°13'0 0.7
2017-Oct-18 23:00N 33°43' W 118°13'0 0.0
2017-Oct-18 22:30N 33°44' W 118°13'2 3.6
2017-Oct-18 21:59N 33°45' W 118°14'1 1.6
2017-Oct-18 21:30N 33°45' W 118°13'2 3.8
2017-Oct-18 21:00N 33°44' W 118°11'3 5.2
2017-Oct-18 20:29N 33°43' W 118°15'1 2.7
2017-Oct-18 20:00N 33°44' W 118°16'0 0.0
2017-Oct-18 19:28N 33°44' W 118°16'0 0.0
2017-Oct-18 18:59N 33°44' W 118°16'0 0.0
2017-Oct-18 18:30N 33°44' W 118°16'0 0.0
2017-Oct-18 18:00N 33°44' W 118°16'0 0.0
2017-Oct-18 17:30N 33°44' W 118°16'0 0.0
2017-Oct-18 16:56N 33°44' W 118°16'0 0.0
2017-Oct-18 16:30N 33°44' W 118°16'0 0.0
2017-Oct-18 15:57N 33°44' W 118°16'0 0.0
2017-Oct-18 15:28N 33°44' W 118°16'0 0.0
2017-Oct-18 14:58N 33°44' W 118°16'5 4.5
2017-Oct-18 13:57N 33°44' W 118°10'5 5.9
2017-Oct-18 13:11N 33°44' W 118°16'0 1.0
2017-Oct-18 13:00N 33°44' W 118°16'0 0.0
2017-Oct-18 12:29N 33°44' W 118°16'0 0.0
2017-Oct-18 12:00N 33°44' W 118°16'0 0.0
2017-Oct-18 11:30N 33°44' W 118°16'0 0.0
2017-Oct-18 11:00N 33°44' W 118°16'0 0.0
2017-Oct-18 10:30N 33°44' W 118°16'0 0.0
2017-Oct-18 10:00N 33°44' W 118°16'0 0.0
2017-Oct-18 09:30N 33°44' W 118°16'0 0.0
2017-Oct-18 09:00N 33°44' W 118°16'0 0.0
2017-Oct-18 08:29N 33°44' W 118°16'0 0.0
2017-Oct-18 08:00N 33°44' W 118°16'0 0.0
2017-Oct-18 07:30N 33°44' W 118°16'0 0.0
2017-Oct-18 07:00N 33°44' W 118°16'0 0.0
2017-Oct-18 06:30N 33°44' W 118°16'0 0.0
2017-Oct-18 06:00N 33°44' W 118°16'0 0.0
2017-Oct-18 05:22N 33°44' W 118°16'0 0.0
2017-Oct-18 04:58N 33°44' W 118°16'0 0.0
2017-Oct-18 04:20N 33°44' W 118°16'0 0.0
2017-Oct-18 03:57N 33°44' W 118°16'0 0.0
2017-Oct-18 03:29N 33°44' W 118°16'0 0.0
2017-Oct-18 02:58N 33°44' W 118°16'0 0.0
2017-Oct-18 02:30N 33°44' W 118°16'0 0.0
2017-Oct-18 01:59N 33°44' W 118°16'0 0.0
2017-Oct-18 01:28N 33°44' W 118°16'0 0.0
2017-Oct-18 00:56N 33°44' W 118°16'0 0.0
2017-Oct-18 00:25N 33°44' W 118°16'0 0.0
2017-Oct-18 00:00N 33°44' W 118°16'0 0.0
2017-Oct-17 23:30N 33°44' W 118°16'0 0.0
2017-Oct-17 22:56N 33°44' W 118°16'0 0.0
2017-Oct-17 22:28N 33°44' W 118°16'0 0.0
2017-Oct-17 21:59N 33°44' W 118°16'0 0.0
2017-Oct-17 21:29N 33°44' W 118°16'0 0.0
2017-Oct-17 21:00N 33°44' W 118°16'0 0.0
2017-Oct-17 20:30N 33°44' W 118°16'0 0.0
2017-Oct-17 19:58N 33°44' W 118°16'0 0.0
2017-Oct-17 19:30N 33°44' W 118°16'0 0.0
2017-Oct-17 19:00N 33°44' W 118°16'0 0.0
2017-Oct-17 18:30N 33°44' W 118°16'0 0.0
2017-Oct-17 17:59N 33°44' W 118°16'0 0.0
2017-Oct-17 17:30N 33°44' W 118°16'0 0.0
2017-Oct-17 17:00N 33°44' W 118°16'0 0.0
2017-Oct-17 16:30N 33°44' W 118°16'0 0.1
2017-Oct-17 15:59N 33°44' W 118°16'0 0.5
2017-Oct-17 15:20N 33°44' W 118°15'1 2.9
2017-Oct-17 14:54N 33°45' W 118°16'1 3.3
2017-Oct-17 14:27N 33°43' W 118°16'2 0.6
2017-Oct-17 11:41N 33°43' W 118°14'2 6.1
2017-Oct-17 11:26N 33°44' W 118°16'0 0.0
2017-Oct-17 11:00N 33°44' W 118°16'0 0.0
2017-Oct-17 10:23N 33°44' W 118°16'0 0.0
2017-Oct-17 09:58N 33°44' W 118°16'0 0.0
2017-Oct-17 09:28N 33°44' W 118°16'0 0.0
2017-Oct-17 08:47N 33°44' W 118°16'0 0.0
2017-Oct-17 08:25N 33°44' W 118°16'0 0.0
2017-Oct-17 07:56N 33°44' W 118°16'0 0.0
2017-Oct-17 07:29N 33°44' W 118°16'0 0.0
2017-Oct-17 06:51N 33°44' W 118°16'0 0.0
2017-Oct-17 06:21N 33°44' W 118°16'0 0.0
2017-Oct-17 05:51N 33°44' W 118°16'0 0.0
2017-Oct-17 05:29N 33°44' W 118°16'0 0.0
2017-Oct-17 04:58N 33°44' W 118°16'0 0.0
2017-Oct-17 04:29N 33°44' W 118°16'0 0.0
2017-Oct-17 03:55N 33°44' W 118°16'0 0.0
2017-Oct-17 03:28N 33°44' W 118°16'0 0.0
2017-Oct-17 03:00N 33°44' W 118°16'0 0.0
2017-Oct-17 02:30N 33°44' W 118°16'0 0.0
2017-Oct-17 01:59N 33°44' W 118°16'0 0.0
2017-Oct-17 01:30N 33°44' W 118°16'0 0.0
2017-Oct-17 01:00N 33°44' W 118°16'0 0.0
2017-Oct-17 00:30N 33°44' W 118°16'0 0.0
2017-Oct-17 00:00N 33°44' W 118°16'0 0.0
2017-Oct-16 23:30N 33°44' W 118°16'0 0.0
2017-Oct-16 23:00N 33°44' W 118°16'0 0.0
2017-Oct-16 22:29N 33°44' W 118°16'0 0.0
2017-Oct-16 21:59N 33°44' W 118°16'0 0.0
2017-Oct-16 21:30N 33°44' W 118°16'0 0.0
2017-Oct-16 21:00N 33°44' W 118°16'0 0.0
2017-Oct-16 20:29N 33°44' W 118°16'0 0.0
2017-Oct-16 20:00N 33°44' W 118°16'0 0.0
2017-Oct-16 19:30N 33°44' W 118°16'0 0.0
2017-Oct-16 19:00N 33°44' W 118°16'0 0.0
2017-Oct-16 18:30N 33°44' W 118°16'0 0.0
2017-Oct-16 18:00N 33°44' W 118°16'0 0.0
2017-Oct-16 17:30N 33°44' W 118°16'0 0.0
2017-Oct-16 16:58N 33°44' W 118°16'0 0.0
2017-Oct-16 16:28N 33°44' W 118°16'0 0.0
2017-Oct-16 15:59N 33°44' W 118°16'0 0.0
2017-Oct-16 15:30N 33°44' W 118°16'0 0.0
2017-Oct-16 14:44N 33°44' W 118°16'1 1.0
2017-Oct-16 13:54N 33°44' W 118°17'2 3.2
2017-Oct-16 13:19N 33°46' W 118°16'2 5.1
2017-Oct-16 12:58N 33°44' W 118°17'1 2.5
2017-Oct-16 12:29N 33°45' W 118°17'1 0.7
2017-Oct-16 11:45N 33°45' W 118°16'1 1.1
2017-Oct-16 10:37N 33°44' W 118°16'0 0.0
2017-Oct-16 10:20N 33°44' W 118°16'0 0.0
2017-Oct-16 09:53N 33°44' W 118°16'0 0.0
2017-Oct-16 09:18N 33°44' W 118°16'0 0.0
2017-Oct-16 08:57N 33°44' W 118°16'0 0.0
2017-Oct-16 08:10N 33°44' W 118°16'0 0.0
2017-Oct-16 07:50N 33°44' W 118°16'0 0.0
2017-Oct-16 07:29N 33°44' W 118°16'0 0.0
2017-Oct-16 06:58N 33°44' W 118°16'0 0.0
2017-Oct-16 06:30N 33°44' W 118°16'0 0.0
2017-Oct-16 06:00N 33°44' W 118°16'0 0.0
2017-Oct-16 05:30N 33°44' W 118°16'0 0.0
2017-Oct-16 05:00N 33°44' W 118°16'0 0.0
2017-Oct-16 04:30N 33°44' W 118°16'0 0.0
2017-Oct-16 04:00N 33°44' W 118°16'0 0.0
2017-Oct-16 03:30N 33°44' W 118°16'0 0.0
2017-Oct-16 03:00N 33°44' W 118°16'0 0.0
2017-Oct-16 02:29N 33°44' W 118°16'0 0.0
2017-Oct-16 02:00N 33°44' W 118°16'0 0.0
2017-Oct-16 01:30N 33°44' W 118°16'0 0.0
2017-Oct-16 00:56N 33°44' W 118°16'0 0.0
2017-Oct-16 00:30N 33°44' W 118°16'0 0.0
2017-Oct-16 00:00N 33°44' W 118°16'0 0.0
2017-Oct-15 23:30N 33°44' W 118°16'3 5.3
2017-Oct-15 23:00N 33°44' W 118°13'1 1.1
2017-Oct-15 22:30N 33°44' W 118°12'1 1.4
2017-Oct-15 21:59N 33°44' W 118°12'1 2.6
2017-Oct-15 21:30N 33°43' W 118°11'3 5.3
2017-Oct-15 21:00N 33°42' W 118°14'2 4.6
2017-Oct-15 20:30N 33°44' W 118°16'0 0.0
2017-Oct-15 19:59N 33°44' W 118°16'0 0.0
2017-Oct-15 19:30N 33°44' W 118°16'0 0.0
2017-Oct-15 19:00N 33°44' W 118°16'0 0.0
2017-Oct-15 18:30N 33°44' W 118°16'0 0.0
2017-Oct-15 17:59N 33°44' W 118°16'0 0.0
2017-Oct-15 17:30N 33°44' W 118°16'0 0.0
2017-Oct-15 17:00N 33°44' W 118°16'0 0.0
2017-Oct-15 16:30N 33°44' W 118°16'0 0.0
2017-Oct-15 16:00N 33°44' W 118°16'0 0.0
2017-Oct-15 15:27N 33°44' W 118°16'0 0.0
2017-Oct-15 15:00N 33°44' W 118°16'1 1.0
2017-Oct-15 13:54N 33°43' W 118°15'2 4.1
2017-Oct-15 13:27N 33°44' W 118°13'2 4.7
2017-Oct-15 13:00N 33°44' W 118°16'1 1.3
2017-Oct-15 12:30N 33°43' W 118°16'1 1.5
2017-Oct-15 12:00N 33°44' W 118°15'0 0.5
2017-Oct-15 11:26N 33°44' W 118°16'0 0.0
2017-Oct-15 11:00N 33°44' W 118°16'0 0.0
2017-Oct-15 10:12N 33°44' W 118°16'0 0.0
2017-Oct-15 09:59N 33°44' W 118°16'0 0.0
2017-Oct-15 09:29N 33°44' W 118°16'0 0.0
2017-Oct-15 09:00N 33°44' W 118°16'0 0.0
2017-Oct-15 08:29N 33°44' W 118°16'0 0.0
2017-Oct-15 08:00N 33°44' W 118°16'0 0.0
2017-Oct-15 07:29N 33°44' W 118°16'0 0.0
2017-Oct-15 07:00N 33°44' W 118°16'0 0.0
2017-Oct-15 06:30N 33°44' W 118°16'0 0.0
2017-Oct-15 06:00N 33°44' W 118°16'0 0.0
2017-Oct-15 05:30N 33°44' W 118°16'0 0.0
2017-Oct-15 04:58N 33°44' W 118°16'0 0.0
2017-Oct-15 04:30N 33°44' W 118°16'0 0.0
2017-Oct-15 04:00N 33°44' W 118°16'0 0.0
2017-Oct-15 03:30N 33°44' W 118°16'0 0.0
2017-Oct-15 03:00N 33°44' W 118°16'0 0.0
2017-Oct-15 02:30N 33°44' W 118°16'2 3.6
2017-Oct-15 02:00N 33°43' W 118°14'2 3.7
2017-Oct-15 01:30N 33°45' W 118°13'0 0.2
2017-Oct-15 01:00N 33°45' W 118°13'0 0.1
2017-Oct-15 00:30N 33°45' W 118°13'3 5.8
2017-Oct-15 00:00N 33°43' W 118°16'0 0.7
2017-Oct-14 23:30N 33°44' W 118°16'0 0.0
2017-Oct-14 23:00N 33°44' W 118°16'0 0.0
2017-Oct-14 22:30N 33°44' W 118°16'0 0.0
2017-Oct-14 21:53N 33°44' W 118°16'0 0.0
2017-Oct-14 21:29N 33°44' W 118°16'0 0.0
2017-Oct-14 21:00N 33°44' W 118°16'0 0.0
2017-Oct-14 20:30N 33°44' W 118°16'0 0.0
2017-Oct-14 20:00N 33°44' W 118°16'0 0.0
2017-Oct-14 19:30N 33°44' W 118°16'0 0.0
2017-Oct-14 19:00N 33°44' W 118°16'0 0.0
2017-Oct-14 18:30N 33°44' W 118°16'0 0.0
2017-Oct-14 17:59N 33°44' W 118°16'0 0.0
2017-Oct-14 17:30N 33°44' W 118°16'0 0.0
2017-Oct-14 17:00N 33°44' W 118°16'0 0.0
2017-Oct-14 16:30N 33°44' W 118°16'0 0.0
2017-Oct-14 16:00N 33°44' W 118°16'0 0.0
2017-Oct-14 15:30N 33°44' W 118°16'0 0.0
2017-Oct-14 14:55N 33°44' W 118°16'1 2.7
2017-Oct-14 14:29N 33°43' W 118°15'3 5.6
2017-Oct-14 13:53N 33°45' W 118°12'2 2.0
2017-Oct-14 13:08N 33°43' W 118°11'0 0.4
2017-Oct-14 12:39N 33°44' W 118°11'0 0.5
2017-Oct-14 12:30N 33°44' W 118°11'2 4.2
2017-Oct-14 12:00N 33°45' W 118°13'1 2.7
2017-Oct-14 11:30N 33°46' W 118°13'0 0.0
2017-Oct-14 10:59N 33°46' W 118°13'4 6.8
2017-Oct-14 10:27N 33°43' W 118°15'1 2.1
2017-Oct-14 09:59N 33°44' W 118°16'0 0.0
2017-Oct-14 09:29N 33°44' W 118°16'0 0.0
2017-Oct-14 09:00N 33°44' W 118°16'0 0.0
2017-Oct-14 08:30N 33°44' W 118°16'0 0.0
2017-Oct-14 07:50N 33°44' W 118°16'0 0.0
2017-Oct-14 07:30N 33°44' W 118°16'0 0.0
2017-Oct-14 07:00N 33°44' W 118°16'0 0.0
2017-Oct-14 06:30N 33°44' W 118°16'0 0.0
2017-Oct-14 06:00N 33°44' W 118°16'0 0.0
2017-Oct-14 05:26N 33°44' W 118°16'0 0.0
2017-Oct-14 05:00N 33°44' W 118°16'0 0.0
2017-Oct-14 04:30N 33°44' W 118°16'0 0.0
2017-Oct-14 04:00N 33°44' W 118°16'0 0.0
2017-Oct-14 03:30N 33°44' W 118°16'0 0.0
2017-Oct-14 03:00N 33°44' W 118°16'0 0.0
2017-Oct-14 02:31N 33°44' W 118°16'0 0.0
2017-Oct-14 02:00N 33°44' W 118°16'0 0.0
2017-Oct-14 01:30N 33°44' W 118°16'0 0.0
2017-Oct-14 01:00N 33°44' W 118°16'0 0.0
2017-Oct-14 00:30N 33°44' W 118°16'1 1.3
2017-Oct-14 00:00N 33°43' W 118°16'3 5.8
2017-Oct-13 23:30N 33°44' W 118°12'0 0.7
2017-Oct-13 23:00N 33°44' W 118°12'4 7.0
2017-Oct-13 22:28N 33°44' W 118°08'2 2.6
2017-Oct-13 21:47N 33°44' W 118°06'0 1.5
2017-Oct-13 21:28N 33°44' W 118°06'4 8.4
2017-Oct-13 21:00N 33°44' W 118°11'4 8.5
2017-Oct-13 20:30N 33°44' W 118°16'0 0.0
2017-Oct-13 20:00N 33°44' W 118°16'0 0.0
2017-Oct-13 19:28N 33°44' W 118°16'0 0.0
2017-Oct-13 18:59N 33°44' W 118°16'0 0.0
2017-Oct-13 18:29N 33°44' W 118°16'0 0.0
2017-Oct-13 17:59N 33°44' W 118°16'0 0.0
2017-Oct-13 17:29N 33°44' W 118°16'0 0.0
2017-Oct-13 17:00N 33°44' W 118°16'0 0.0
2017-Oct-13 16:29N 33°44' W 118°16'0 0.0
2017-Oct-13 16:00N 33°44' W 118°16'0 0.0
2017-Oct-13 15:29N 33°44' W 118°16'0 0.0
2017-Oct-13 14:53N 33°44' W 118°16'2 6.1
2017-Oct-13 14:30N 33°43' W 118°13'2 2.8
2017-Oct-13 13:44N 33°42' W 118°11'1 5.1
2017-Oct-13 13:29N 33°41' W 118°11'4 6.8
2017-Oct-13 12:55N 33°43' W 118°15'3 5.7
2017-Oct-13 12:22N 33°46' W 118°17'0 0.2
2017-Oct-13 11:59N 33°46' W 118°17'2 4.1
2017-Oct-13 11:28N 33°44' W 118°16'2 3.2
2017-Oct-13 11:00N 33°43' W 118°15'1 2.6
2017-Oct-13 10:31N 33°44' W 118°16'0 0.0
2017-Oct-13 09:55N 33°44' W 118°16'0 0.0
2017-Oct-13 09:30N 33°44' W 118°16'0 0.0
2017-Oct-13 09:00N 33°44' W 118°16'0 0.0
2017-Oct-13 08:30N 33°44' W 118°16'0 0.0
2017-Oct-13 08:00N 33°44' W 118°16'0 0.0
2017-Oct-13 07:30N 33°44' W 118°16'0 0.0
2017-Oct-13 07:00N 33°44' W 118°16'0 0.0
2017-Oct-13 06:29N 33°44' W 118°16'0 0.0
2017-Oct-13 06:00N 33°44' W 118°16'0 0.0
2017-Oct-13 05:30N 33°44' W 118°16'0 0.0
2017-Oct-13 05:00N 33°44' W 118°16'0 0.0
2017-Oct-13 04:26N 33°44' W 118°16'0 0.0
2017-Oct-13 04:00N 33°44' W 118°16'0 0.0
2017-Oct-13 03:30N 33°44' W 118°16'0 0.0
2017-Oct-13 03:00N 33°44' W 118°16'0 0.0
2017-Oct-13 02:28N 33°44' W 118°16'0 0.0
2017-Oct-13 02:00N 33°44' W 118°16'0 0.0
2017-Oct-13 01:30N 33°44' W 118°16'0 0.0
2017-Oct-13 00:56N 33°44' W 118°16'0 0.9
2017-Oct-13 00:27N 33°44' W 118°15'0 0.0
2017-Oct-13 00:00N 33°44' W 118°15'0 0.8
2017-Oct-12 23:27N 33°44' W 118°16'0 0.7
2017-Oct-12 23:00N 33°44' W 118°15'2 4.4
2017-Oct-12 22:30N 33°45' W 118°13'1 1.2
2017-Oct-12 21:59N 33°46' W 118°13'2 4.3
2017-Oct-12 21:30N 33°44' W 118°12'0 0.6
2017-Oct-12 21:00N 33°44' W 118°12'3 4.8
2017-Oct-12 20:28N 33°43' W 118°15'1 2.8
2017-Oct-12 20:00N 33°44' W 118°16'0 0.0
2017-Oct-12 19:30N 33°44' W 118°16'0 0.0
2017-Oct-12 19:00N 33°44' W 118°16'0 0.0
2017-Oct-12 18:30N 33°44' W 118°16'0 0.0
2017-Oct-12 18:00N 33°44' W 118°16'0 0.0
2017-Oct-12 17:30N 33°44' W 118°16'0 0.0
2017-Oct-12 17:00N 33°44' W 118°16'0 0.0
2017-Oct-12 16:26N 33°44' W 118°16'0 0.0
2017-Oct-12 15:46N 33°44' W 118°16'0 0.0
2017-Oct-12 15:27N 33°44' W 118°16'0 0.0
2017-Oct-12 14:09N 33°44' W 118°16'0 0.0
2017-Oct-12 13:58N 33°44' W 118°16'0 0.0
2017-Oct-12 13:28N 33°44' W 118°16'1 1.1
2017-Oct-12 12:56N 33°43' W 118°16'1 0.6
2017-Oct-12 11:54N 33°44' W 118°15'1 1.4
2017-Oct-12 11:24N 33°43' W 118°16'1 1.6
2017-Oct-12 10:53N 33°44' W 118°15'0 1.0
2017-Oct-12 10:29N 33°44' W 118°16'0 0.0
2017-Oct-12 09:56N 33°44' W 118°16'0 0.0
2017-Oct-12 09:28N 33°44' W 118°16'0 0.0
2017-Oct-12 08:58N 33°44' W 118°16'0 0.0
2017-Oct-12 08:22N 33°44' W 118°16'0 0.0
2017-Oct-12 08:00N 33°44' W 118°16'0 0.0
2017-Oct-12 07:23N 33°44' W 118°16'0 0.0
2017-Oct-12 07:00N 33°44' W 118°16'0 0.0
2017-Oct-12 06:23N 33°44' W 118°16'0 0.0
2017-Oct-12 05:58N 33°44' W 118°16'0 0.0
2017-Oct-12 05:26N 33°44' W 118°16'0 0.0
2017-Oct-12 04:59N 33°44' W 118°16'0 0.0
2017-Oct-12 04:30N 33°44' W 118°16'0 0.0
2017-Oct-12 03:58N 33°44' W 118°16'0 0.0
2017-Oct-12 03:30N 33°44' W 118°16'0 0.0
2017-Oct-12 02:58N 33°44' W 118°16'0 0.0
2017-Oct-12 02:29N 33°44' W 118°16'0 0.0
2017-Oct-12 01:49N 33°44' W 118°16'0 1.4
2017-Oct-12 01:28N 33°43' W 118°16'2 3.9
2017-Oct-12 01:00N 33°45' W 118°16'1 0.9
2017-Oct-12 00:25N 33°46' W 118°15'1 2.2
2017-Oct-12 00:00N 33°45' W 118°16'1 2.4
2017-Oct-11 23:30N 33°44' W 118°16'0 0.0
2017-Oct-11 23:00N 33°44' W 118°16'0 0.0
2017-Oct-11 22:30N 33°44' W 118°16'0 0.0
2017-Oct-11 22:00N 33°44' W 118°16'0 0.0
2017-Oct-11 21:26N 33°44' W 118°16'0 0.0
2017-Oct-11 21:00N 33°44' W 118°16'0 0.0
2017-Oct-11 20:29N 33°44' W 118°16'0 0.0
2017-Oct-11 19:58N 33°44' W 118°16'0 0.0
2017-Oct-11 19:30N 33°44' W 118°16'0 0.0
2017-Oct-11 18:59N 33°44' W 118°16'0 0.0
2017-Oct-11 18:29N 33°44' W 118°16'0 0.0
2017-Oct-11 17:59N 33°44' W 118°16'0 0.0
2017-Oct-11 17:30N 33°44' W 118°16'0 0.0
2017-Oct-11 17:00N 33°44' W 118°16'3 0.2
2017-Oct-11 00:00N 33°46' W 118°13'0 0.1
2017-Oct-10 23:30N 33°46' W 118°13'2 3.6
2017-Oct-10 22:54N 33°46' W 118°15'1 2.8
2017-Oct-10 22:30N 33°45' W 118°16'3 5.2
2017-Oct-10 22:00N 33°43' W 118°15'1 2.8
2017-Oct-10 21:29N 33°44' W 118°16'0 0.0
2017-Oct-10 20:59N 33°44' W 118°16'0 0.0
2017-Oct-10 20:30N 33°44' W 118°16'0 0.0
2017-Oct-10 19:59N 33°44' W 118°16'0 0.0
2017-Oct-10 19:30N 33°44' W 118°16'1 1.8
2017-Oct-10 19:00N 33°43' W 118°15'510.1
2017-Oct-10 18:29N 33°44' W 118°09'3 6.7
2017-Oct-10 18:00N 33°44' W 118°06'0 1.0
2017-Oct-10 17:30N 33°44' W 118°06'3 5.2
2017-Oct-10 17:00N 33°44' W 118°09'4 7.1
2017-Oct-10 16:31N 33°45' W 118°13'1 1.1
2017-Oct-10 16:00N 33°45' W 118°13'0 0.2
2017-Oct-10 15:30N 33°45' W 118°13'5 9.9
2017-Oct-10 15:00N 33°44' W 118°08'3 3.2
2017-Oct-10 13:58N 33°44' W 118°11'4 9.1
2017-Oct-10 13:30N 33°44' W 118°17'1 1.8
2017-Oct-10 13:00N 33°45' W 118°17'1 1.3
2017-Oct-10 12:30N 33°45' W 118°17'1 2.1
2017-Oct-10 12:00N 33°44' W 118°16'0 0.1
2017-Oct-10 11:30N 33°44' W 118°16'1 2.8
2017-Oct-10 11:00N 33°43' W 118°15'1 2.6
2017-Oct-10 10:30N 33°44' W 118°16'0 0.0
2017-Oct-10 10:00N 33°44' W 118°16'0 0.0
2017-Oct-10 09:30N 33°44' W 118°16'0 0.0
2017-Oct-10 09:00N 33°44' W 118°16'0 0.0
2017-Oct-10 08:30N 33°44' W 118°16'0 0.0
2017-Oct-10 08:00N 33°44' W 118°16'0 0.0
2017-Oct-10 07:30N 33°44' W 118°16'0 0.0
2017-Oct-10 07:00N 33°44' W 118°16'0 0.0
2017-Oct-10 06:30N 33°44' W 118°16'0 0.0
2017-Oct-10 06:00N 33°44' W 118°16'0 0.0
2017-Oct-10 05:30N 33°44' W 118°16'0 0.0
2017-Oct-10 05:00N 33°44' W 118°16'0 0.0
2017-Oct-10 04:30N 33°44' W 118°16'0 0.0
2017-Oct-10 04:00N 33°44' W 118°16'0 0.0
2017-Oct-10 03:31N 33°44' W 118°16'0 0.0
2017-Oct-10 03:00N 33°44' W 118°16'0 0.0
2017-Oct-10 02:30N 33°44' W 118°16'0 0.0
2017-Oct-10 02:00N 33°44' W 118°16'0 0.0
2017-Oct-10 01:30N 33°44' W 118°16'0 0.0
2017-Oct-10 01:00N 33°44' W 118°16'0 0.0
2017-Oct-10 00:30N 33°44' W 118°16'0 0.0
2017-Oct-10 00:00N 33°44' W 118°16'0 0.0
2017-Oct-09 23:30N 33°44' W 118°16'0 0.0
2017-Oct-09 23:00N 33°44' W 118°16'0 0.0
2017-Oct-09 22:31N 33°44' W 118°16'0 0.0
2017-Oct-09 22:00N 33°44' W 118°16'0 0.0
2017-Oct-09 21:29N 33°44' W 118°16'0 0.0
2017-Oct-09 20:59N 33°44' W 118°16'0 0.0
2017-Oct-09 20:30N 33°44' W 118°16'0 0.0
2017-Oct-09 20:00N 33°44' W 118°16'0 0.0
2017-Oct-09 19:30N 33°44' W 118°16'0 0.0
2017-Oct-09 19:00N 33°44' W 118°16'0 0.0
2017-Oct-09 18:30N 33°44' W 118°16'0 0.0
2017-Oct-09 18:00N 33°44' W 118°16'0 0.0
2017-Oct-09 17:30N 33°44' W 118°16'0 0.0
2017-Oct-09 16:59N 33°44' W 118°16'0 0.0
2017-Oct-09 16:29N 33°44' W 118°16'0 0.0
2017-Oct-09 15:55N 33°44' W 118°16'1 2.4
2017-Oct-09 15:30N 33°45' W 118°17'0 0.6
2017-Oct-09 14:58N 33°45' W 118°17'0 0.4
2017-Oct-09 14:28N 33°45' W 118°17'2 0.7
2017-Oct-09 11:19N 33°43' W 118°15'1 2.7
2017-Oct-09 10:56N 33°44' W 118°16'  

Dump ship's entire track history